sensor_id;sensor_type;location;lat;lon;timestamp;P1;durP1;ratioP1;P2;durP2;ratioP2
41167;SDS011;26906;45.658;9.272;2022-08-06T04:31:59;2.72;;;1.60;;
41167;SDS011;26906;45.658;9.272;2022-08-06T04:34:27;2.15;;;1.90;;
41167;SDS011;26906;45.658;9.272;2022-08-06T04:36:54;2.85;;;2.10;;
41167;SDS011;26906;45.658;9.272;2022-08-06T04:39:23;4.47;;;2.00;;
41167;SDS011;26906;45.658;9.272;2022-08-06T04:41:49;2.47;;;2.05;;
41167;SDS011;26906;45.658;9.272;2022-08-06T04:44:16;4.70;;;2.17;;
41167;SDS011;26906;45.658;9.272;2022-08-06T04:46:42;4.35;;;2.50;;
41167;SDS011;26906;45.658;9.272;2022-08-06T04:49:14;4.25;;;2.10;;
41167;SDS011;26906;45.658;9.272;2022-08-06T04:51:41;2.22;;;2.03;;
41167;SDS011;26906;45.658;9.272;2022-08-06T04:54:11;3.58;;;1.90;;
41167;SDS011;26906;45.658;9.272;2022-08-06T04:56:37;4.38;;;2.00;;
41167;SDS011;26906;45.658;9.272;2022-08-06T04:59:03;5.10;;;2.10;;
41167;SDS011;26906;45.658;9.272;2022-08-06T05:01:30;3.63;;;2.20;;
41167;SDS011;26906;45.658;9.272;2022-08-06T05:03:56;2.88;;;2.30;;
41167;SDS011;26906;45.658;9.272;2022-08-06T05:06:23;2.63;;;1.70;;
41167;SDS011;26906;45.658;9.272;2022-08-06T05:09:11;3.80;;;2.10;;
41167;SDS011;26906;45.658;9.272;2022-08-06T05:11:54;5.45;;;2.50;;
41167;SDS011;26906;45.658;9.272;2022-08-06T05:14:21;5.18;;;2.10;;
41167;SDS011;26906;45.658;9.272;2022-08-06T05:16:51;4.68;;;2.20;;
41167;SDS011;26906;45.658;9.272;2022-08-06T05:19:26;5.03;;;2.72;;
41167;SDS011;26906;45.658;9.272;2022-08-06T05:21:58;9.85;;;2.40;;
41167;SDS011;26906;45.658;9.272;2022-08-06T05:24:27;2.00;;;1.90;;
41167;SDS011;26906;45.658;9.272;2022-08-06T05:26:53;2.95;;;2.13;;
41167;SDS011;26906;45.658;9.272;2022-08-06T05:29:20;2.17;;;1.83;;
41167;SDS011;26906;45.658;9.272;2022-08-06T05:31:46;3.40;;;2.08;;
41167;SDS011;26906;45.658;9.272;2022-08-06T05:34:12;3.05;;;1.90;;
41167;SDS011;26906;45.658;9.272;2022-08-06T05:36:38;3.53;;;2.30;;
41167;SDS011;26906;45.658;9.272;2022-08-06T05:39:06;4.07;;;2.70;;
41167;SDS011;26906;45.658;9.272;2022-08-06T05:41:32;4.65;;;2.17;;
41167;SDS011;26906;45.658;9.272;2022-08-06T05:44:01;2.20;;;2.00;;
41167;SDS011;26906;45.658;9.272;2022-08-06T05:46:41;3.78;;;2.15;;
41167;SDS011;26906;45.658;9.272;2022-08-06T05:52:04;2.92;;;2.00;;
41167;SDS011;26906;45.658;9.272;2022-08-06T05:54:50;8.98;;;2.00;;
41167;SDS011;26906;45.658;9.272;2022-08-06T06:00:20;3.47;;;1.95;;
41167;SDS011;26906;45.658;9.272;2022-08-06T06:02:51;2.53;;;1.90;;
41167;SDS011;26906;45.658;9.272;2022-08-06T06:05:19;3.00;;;1.77;;
41167;SDS011;26906;45.658;9.272;2022-08-06T06:07:46;3.78;;;2.20;;
41167;SDS011;26906;45.658;9.272;2022-08-06T06:10:12;2.83;;;2.17;;
41167;SDS011;26906;45.658;9.272;2022-08-06T06:12:40;3.30;;;1.98;;
41167;SDS011;26906;45.658;9.272;2022-08-06T06:15:11;4.55;;;1.90;;
41167;SDS011;26906;45.658;9.272;2022-08-06T06:26:21;4.10;;;2.40;;
41167;SDS011;26906;45.658;9.272;2022-08-06T06:29:02;6.13;;;2.23;;
41167;SDS011;26906;45.658;9.272;2022-08-06T06:32:38;2.65;;;2.00;;
41167;SDS011;26906;45.658;9.272;2022-08-06T06:34:54;1.92;;;1.50;;
41167;SDS011;26906;45.658;9.272;2022-08-06T06:37:41;3.25;;;1.90;;
41167;SDS011;26906;45.658;9.272;2022-08-06T06:40:37;3.67;;;1.80;;
41167;SDS011;26906;45.658;9.272;2022-08-06T06:45:48;3.65;;;1.50;;
41167;SDS011;26906;45.658;9.272;2022-08-06T06:48:25;4.10;;;1.70;;
41167;SDS011;26906;45.658;9.272;2022-08-06T06:50:59;3.75;;;1.58;;
41167;SDS011;26906;45.658;9.272;2022-08-06T06:53:30;2.45;;;1.60;;
41167;SDS011;26906;45.658;9.272;2022-08-06T06:55:59;1.88;;;1.58;;
41167;SDS011;26906;45.658;9.272;2022-08-06T07:01:03;2.78;;;1.92;;
41167;SDS011;26906;45.658;9.272;2022-08-06T07:03:31;5.45;;;2.10;;
41167;SDS011;26906;45.658;9.272;2022-08-06T07:06:06;2.65;;;1.50;;
41167;SDS011;26906;45.658;9.272;2022-08-06T07:08:35;2.70;;;1.40;;
41167;SDS011;26906;45.658;9.272;2022-08-06T07:11:09;3.53;;;1.50;;
41167;SDS011;26906;45.658;9.272;2022-08-06T07:13:42;5.88;;;1.58;;
41167;SDS011;26906;45.658;9.272;2022-08-06T07:16:10;4.13;;;1.52;;
41167;SDS011;26906;45.658;9.272;2022-08-06T07:18:39;4.25;;;1.90;;
41167;SDS011;26906;45.658;9.272;2022-08-06T07:21:06;3.97;;;1.60;;
41167;SDS011;26906;45.658;9.272;2022-08-06T07:23:32;2.40;;;1.60;;
41167;SDS011;26906;45.658;9.272;2022-08-06T07:26:01;2.85;;;1.70;;
41167;SDS011;26906;45.658;9.272;2022-08-06T07:28:30;2.75;;;1.60;;
41167;SDS011;26906;45.658;9.272;2022-08-06T07:30:57;3.03;;;1.88;;
41167;SDS011;26906;45.658;9.272;2022-08-06T07:33:25;3.00;;;1.75;;
41167;SDS011;26906;45.658;9.272;2022-08-06T07:35:52;3.42;;;2.70;;
41167;SDS011;26906;45.658;9.272;2022-08-06T07:38:20;4.75;;;1.83;;
41167;SDS011;26906;45.658;9.272;2022-08-06T07:40:50;3.42;;;1.65;;
41167;SDS011;26906;45.658;9.272;2022-08-06T07:43:25;5.90;;;1.98;;
41167;SDS011;26906;45.658;9.272;2022-08-06T07:45:55;6.85;;;1.90;;
41167;SDS011;26906;45.658;9.272;2022-08-06T07:48:25;1.65;;;1.30;;
41167;SDS011;26906;45.658;9.272;2022-08-06T07:50:56;1.52;;;1.30;;
41167;SDS011;26906;45.658;9.272;2022-08-06T07:53:23;1.60;;;1.20;;
41167;SDS011;26906;45.658;9.272;2022-08-06T07:55:50;2.80;;;1.50;;
41167;SDS011;26906;45.658;9.272;2022-08-06T07:58:17;2.30;;;1.17;;
41167;SDS011;26906;45.658;9.272;2022-08-06T08:00:44;1.52;;;1.20;;
41167;SDS011;26906;45.658;9.272;2022-08-06T08:03:13;3.03;;;1.15;;
41167;SDS011;26906;45.658;9.272;2022-08-06T08:05:59;1.23;;;1.10;;
41167;SDS011;26906;45.658;9.272;2022-08-06T08:08:48;2.40;;;1.15;;
41167;SDS011;26906;45.658;9.272;2022-08-06T08:11:19;1.67;;;1.13;;
41167;SDS011;26906;45.658;9.272;2022-08-06T08:13:46;2.35;;;1.20;;
41167;SDS011;26906;45.658;9.272;2022-08-06T08:16:13;1.60;;;1.30;;
41167;SDS011;26906;45.658;9.272;2022-08-06T08:18:40;2.95;;;1.30;;
41167;SDS011;26906;45.658;9.272;2022-08-06T08:21:06;1.85;;;1.15;;
41167;SDS011;26906;45.658;9.272;2022-08-06T08:23:34;4.90;;;1.20;;
41167;SDS011;26906;45.658;9.272;2022-08-06T08:26:02;2.35;;;1.35;;
41167;SDS011;26906;45.658;9.272;2022-08-06T08:28:28;1.55;;;1.00;;
41167;SDS011;26906;45.658;9.272;2022-08-06T08:30:55;2.67;;;1.25;;
41167;SDS011;26906;45.658;9.272;2022-08-06T08:33:24;1.33;;;1.13;;
41167;SDS011;26906;45.658;9.272;2022-08-06T08:35:51;3.53;;;1.33;;
41167;SDS011;26906;45.658;9.272;2022-08-06T08:38:17;4.43;;;1.15;;
41167;SDS011;26906;45.658;9.272;2022-08-06T08:40:42;1.52;;;1.20;;
41167;SDS011;26906;45.658;9.272;2022-08-06T08:43:10;1.48;;;1.13;;
41167;SDS011;26906;45.658;9.272;2022-08-06T08:45:42;2.38;;;1.65;;
41167;SDS011;26906;45.658;9.272;2022-08-06T08:48:10;2.90;;;1.27;;
41167;SDS011;26906;45.658;9.272;2022-08-06T08:50:40;1.00;;;1.00;;
41167;SDS011;26906;45.658;9.272;2022-08-06T08:53:13;2.30;;;1.38;;
41167;SDS011;26906;45.658;9.272;2022-08-06T08:55:40;2.30;;;1.20;;
41167;SDS011;26906;45.658;9.272;2022-08-06T08:58:07;3.03;;;1.30;;
41167;SDS011;26906;45.658;9.272;2022-08-06T09:00:33;3.53;;;1.35;;
41167;SDS011;26906;45.658;9.272;2022-08-06T09:03:00;1.20;;;1.10;;
41167;SDS011;26906;45.658;9.272;2022-08-06T09:05:27;3.33;;;1.10;;
41167;SDS011;26906;45.658;9.272;2022-08-06T09:07:55;1.45;;;1.20;;
41167;SDS011;26906;45.658;9.272;2022-08-06T09:10:22;2.30;;;1.08;;
41167;SDS011;26906;45.658;9.272;2022-08-06T09:12:50;1.92;;;1.33;;
41167;SDS011;26906;45.658;9.272;2022-08-06T09:15:16;1.40;;;1.25;;
41167;SDS011;26906;45.658;9.272;2022-08-06T09:17:43;2.25;;;1.75;;
41167;SDS011;26906;45.658;9.272;2022-08-06T09:20:15;1.40;;;1.05;;
41167;SDS011;26906;45.658;9.272;2022-08-06T09:22:41;3.63;;;1.70;;
41167;SDS011;26906;45.658;9.272;2022-08-06T09:28:05;3.38;;;1.13;;
41167;SDS011;26906;45.658;9.272;2022-08-06T09:33:35;1.40;;;1.30;;
41167;SDS011;26906;45.658;9.272;2022-08-06T09:36:21;5.32;;;1.15;;
41167;SDS011;26906;45.658;9.272;2022-08-06T09:38:54;1.25;;;1.10;;
41167;SDS011;26906;45.658;9.272;2022-08-06T09:41:26;5.20;;;1.33;;
41167;SDS011;26906;45.658;9.272;2022-08-06T09:43:55;2.13;;;1.35;;
41167;SDS011;26906;45.658;9.272;2022-08-06T09:46:34;2.58;;;1.20;;
41167;SDS011;26906;45.658;9.272;2022-08-06T09:49:02;3.08;;;1.25;;
41167;SDS011;26906;45.658;9.272;2022-08-06T09:51:29;2.90;;;1.10;;
41167;SDS011;26906;45.658;9.272;2022-08-06T09:54:00;1.80;;;1.38;;
41167;SDS011;26906;45.658;9.272;2022-08-06T09:56:27;1.63;;;1.38;;
41167;SDS011;26906;45.658;9.272;2022-08-06T09:59:01;5.57;;;1.42;;
41167;SDS011;26906;45.658;9.272;2022-08-06T10:01:29;2.70;;;1.10;;
41167;SDS011;26906;45.658;9.272;2022-08-06T10:04:02;1.98;;;1.33;;
41167;SDS011;26906;45.658;9.272;2022-08-06T10:06:29;23.58;;;5.65;;
41167;SDS011;26906;45.658;9.272;2022-08-06T10:09:09;5.82;;;2.78;;
41167;SDS011;26906;45.658;9.272;2022-08-06T10:11:37;2.83;;;1.30;;
41167;SDS011;26906;45.658;9.272;2022-08-06T10:14:06;2.90;;;1.30;;
41167;SDS011;26906;45.658;9.272;2022-08-06T10:17:04;3.88;;;1.35;;
41167;SDS011;26906;45.658;9.272;2022-08-06T10:19:31;2.53;;;1.42;;
41167;SDS011;26906;45.658;9.272;2022-08-06T10:22:18;4.68;;;1.27;;
41167;SDS011;26906;45.658;9.272;2022-08-06T10:24:50;1.88;;;1.30;;
41167;SDS011;26906;45.658;9.272;2022-08-06T10:27:22;3.88;;;1.60;;
41167;SDS011;26906;45.658;9.272;2022-08-06T10:29:58;1.92;;;1.30;;
41167;SDS011;26906;45.658;9.272;2022-08-06T10:32:31;4.45;;;1.40;;
41167;SDS011;26906;45.658;9.272;2022-08-06T10:35:07;3.08;;;1.30;;
41167;SDS011;26906;45.658;9.272;2022-08-06T10:37:37;1.73;;;1.50;;
41167;SDS011;26906;45.658;9.272;2022-08-06T10:40:07;2.60;;;1.30;;
41167;SDS011;26906;45.658;9.272;2022-08-06T10:42:37;3.17;;;1.70;;
41167;SDS011;26906;45.658;9.272;2022-08-06T10:45:03;4.82;;;1.83;;
41167;SDS011;26906;45.658;9.272;2022-08-06T10:47:31;2.80;;;2.08;;
41167;SDS011;26906;45.658;9.272;2022-08-06T10:49:58;5.68;;;2.40;;
41167;SDS011;26906;45.658;9.272;2022-08-06T10:52:24;3.65;;;2.15;;
41167;SDS011;26906;45.658;9.272;2022-08-06T10:54:50;2.17;;;2.00;;
41167;SDS011;26906;45.658;9.272;2022-08-06T10:57:16;4.13;;;1.70;;
41167;SDS011;26906;45.658;9.272;2022-08-06T10:59:43;1.90;;;1.67;;
41167;SDS011;26906;45.658;9.272;2022-08-06T11:04:50;3.65;;;2.20;;
41167;SDS011;26906;45.658;9.272;2022-08-06T11:15:13;4.07;;;1.95;;
41167;SDS011;26906;45.658;9.272;2022-08-06T11:22:56;5.90;;;2.15;;
41167;SDS011;26906;45.658;9.272;2022-08-06T11:25:36;3.70;;;1.80;;
41167;SDS011;26906;45.658;9.272;2022-08-06T11:30:43;3.50;;;2.20;;
41167;SDS011;26906;45.658;9.272;2022-08-06T11:33:11;3.85;;;1.90;;
41167;SDS011;26906;45.658;9.272;2022-08-06T11:35:38;2.67;;;2.17;;
41167;SDS011;26906;45.658;9.272;2022-08-06T11:38:06;3.40;;;2.13;;
41167;SDS011;26906;45.658;9.272;2022-08-06T11:40:52;3.60;;;2.25;;
41167;SDS011;26906;45.658;9.272;2022-08-06T11:54:21;2.70;;;2.13;;
41167;SDS011;26906;45.658;9.272;2022-08-06T11:59:44;4.13;;;2.00;;
41167;SDS011;26906;45.658;9.272;2022-08-06T12:07:40;2.97;;;2.50;;
41167;SDS011;26906;45.658;9.272;2022-08-06T12:10:09;4.07;;;1.80;;
41167;SDS011;26906;45.658;9.272;2022-08-06T12:12:40;2.35;;;2.15;;
41167;SDS011;26906;45.658;9.272;2022-08-06T12:20:31;4.97;;;2.40;;
41167;SDS011;26906;45.658;9.272;2022-08-06T12:23:00;4.80;;;2.10;;
41167;SDS011;26906;45.658;9.272;2022-08-06T12:25:35;3.83;;;2.40;;
41167;SDS011;26906;45.658;9.272;2022-08-06T12:28:02;3.75;;;2.40;;
41167;SDS011;26906;45.658;9.272;2022-08-06T12:33:21;29.52;;;3.42;;
41167;SDS011;26906;45.658;9.272;2022-08-06T12:35:54;5.93;;;2.55;;
41167;SDS011;26906;45.658;9.272;2022-08-06T12:38:25;2.63;;;2.10;;
41167;SDS011;26906;45.658;9.272;2022-08-06T12:40:59;3.67;;;2.20;;
41167;SDS011;26906;45.658;9.272;2022-08-06T12:43:27;2.75;;;2.33;;
41167;SDS011;26906;45.658;9.272;2022-08-06T12:45:55;2.90;;;2.35;;
41167;SDS011;26906;45.658;9.272;2022-08-06T12:48:22;3.90;;;2.30;;
41167;SDS011;26906;45.658;9.272;2022-08-06T12:50:49;3.45;;;2.47;;
41167;SDS011;26906;45.658;9.272;2022-08-06T12:53:25;4.13;;;2.65;;
41167;SDS011;26906;45.658;9.272;2022-08-06T12:55:52;3.67;;;2.42;;
41167;SDS011;26906;45.658;9.272;2022-08-06T12:58:30;4.97;;;2.10;;
41167;SDS011;26906;45.658;9.272;2022-08-06T13:00:58;3.58;;;2.47;;
41167;SDS011;26906;45.658;9.272;2022-08-06T13:03:25;6.88;;;2.60;;
41167;SDS011;26906;45.658;9.272;2022-08-06T13:05:56;5.78;;;2.58;;
41167;SDS011;26906;45.658;9.272;2022-08-06T13:08:24;3.88;;;2.38;;
41167;SDS011;26906;45.658;9.272;2022-08-06T13:10:53;3.92;;;2.42;;
41167;SDS011;26906;45.658;9.272;2022-08-06T13:13:20;3.20;;;2.45;;
41167;SDS011;26906;45.658;9.272;2022-08-06T13:19:04;2.30;;;2.00;;
41167;SDS011;26906;45.658;9.272;2022-08-06T13:21:38;4.22;;;2.40;;
41167;SDS011;26906;45.658;9.272;2022-08-06T13:24:05;7.32;;;2.00;;
41167;SDS011;26906;45.658;9.272;2022-08-06T13:26:32;2.47;;;1.90;;
41167;SDS011;26906;45.658;9.272;2022-08-06T13:29:06;3.38;;;2.40;;
41167;SDS011;26906;45.658;9.272;2022-08-06T13:32:08;5.22;;;2.10;;
41167;SDS011;26906;45.658;9.272;2022-08-06T13:34:45;6.18;;;2.20;;
41167;SDS011;26906;45.658;9.272;2022-08-06T13:37:13;3.20;;;2.30;;
41167;SDS011;26906;45.658;9.272;2022-08-06T13:39:48;4.30;;;2.40;;
41167;SDS011;26906;45.658;9.272;2022-08-06T13:42:15;2.25;;;2.05;;
41167;SDS011;26906;45.658;9.272;2022-08-06T13:44:42;2.30;;;2.10;;
41167;SDS011;26906;45.658;9.272;2022-08-06T13:47:10;4.10;;;1.92;;
41167;SDS011;26906;45.658;9.272;2022-08-06T13:49:42;4.63;;;2.05;;
41167;SDS011;26906;45.658;9.272;2022-08-06T13:52:08;3.92;;;2.13;;
41167;SDS011;26906;45.658;9.272;2022-08-06T13:54:35;2.03;;;1.90;;
41167;SDS011;26906;45.658;9.272;2022-08-06T13:57:01;10.32;;;2.63;;
41167;SDS011;26906;45.658;9.272;2022-08-06T13:59:29;1.98;;;1.88;;
41167;SDS011;26906;45.658;9.272;2022-08-06T14:01:56;2.95;;;1.95;;
41167;SDS011;26906;45.658;9.272;2022-08-06T14:04:23;2.92;;;2.00;;
41167;SDS011;26906;45.658;9.272;2022-08-06T14:06:50;2.72;;;1.98;;
41167;SDS011;26906;45.658;9.272;2022-08-06T14:09:18;3.65;;;2.20;;
41167;SDS011;26906;45.658;9.272;2022-08-06T14:11:52;2.83;;;2.17;;
41167;SDS011;26906;45.658;9.272;2022-08-06T14:14:25;3.83;;;2.00;;
41167;SDS011;26906;45.658;9.272;2022-08-06T14:16:52;2.30;;;2.20;;
41167;SDS011;26906;45.658;9.272;2022-08-06T14:19:22;3.53;;;2.28;;
41167;SDS011;26906;45.658;9.272;2022-08-06T14:21:49;4.28;;;2.00;;
41167;SDS011;26906;45.658;9.272;2022-08-06T14:24:14;4.15;;;2.10;;
41167;SDS011;26906;45.658;9.272;2022-08-06T14:26:45;2.28;;;1.85;;
41167;SDS011;26906;45.658;9.272;2022-08-06T14:29:10;3.97;;;2.25;;
41167;SDS011;26906;45.658;9.272;2022-08-06T14:31:37;5.03;;;2.00;;
41167;SDS011;26906;45.658;9.272;2022-08-06T14:34:02;4.80;;;2.10;;
41167;SDS011;26906;45.658;9.272;2022-08-06T14:36:28;4.68;;;2.30;;
41167;SDS011;26906;45.658;9.272;2022-08-06T14:38:55;2.75;;;2.00;;
41167;SDS011;26906;45.658;9.272;2022-08-06T14:41:22;2.28;;;1.88;;
41167;SDS011;26906;45.658;9.272;2022-08-06T14:44:07;1.80;;;1.70;;
41167;SDS011;26906;45.658;9.272;2022-08-06T14:46:52;1.98;;;1.70;;
41167;SDS011;26906;45.658;9.272;2022-08-06T14:49:18;4.45;;;1.90;;
41167;SDS011;26906;45.658;9.272;2022-08-06T14:51:44;3.28;;;1.98;;
41167;SDS011;26906;45.658;9.272;2022-08-06T14:54:10;2.40;;;1.67;;
41167;SDS011;26906;45.658;9.272;2022-08-06T14:56:36;2.92;;;1.98;;
41167;SDS011;26906;45.658;9.272;2022-08-06T14:59:02;3.42;;;1.98;;
41167;SDS011;26906;45.658;9.272;2022-08-06T15:01:28;1.80;;;1.70;;
41167;SDS011;26906;45.658;9.272;2022-08-06T15:03:58;2.75;;;1.73;;
41167;SDS011;26906;45.658;9.272;2022-08-06T15:06:27;7.65;;;1.85;;
41167;SDS011;26906;45.658;9.272;2022-08-06T15:08:54;2.00;;;1.63;;
41167;SDS011;26906;45.658;9.272;2022-08-06T15:11:19;3.10;;;1.70;;
41167;SDS011;26906;45.658;9.272;2022-08-06T15:13:45;1.77;;;1.67;;
41167;SDS011;26906;45.658;9.272;2022-08-06T15:16:11;1.92;;;1.77;;
41167;SDS011;26906;45.658;9.272;2022-08-06T15:18:36;1.80;;;1.70;;
41167;SDS011;26906;45.658;9.272;2022-08-06T15:21:04;3.30;;;1.70;;
41167;SDS011;26906;45.658;9.272;2022-08-06T15:23:30;2.85;;;1.70;;
41167;SDS011;26906;45.658;9.272;2022-08-06T15:25:56;3.15;;;1.77;;
41167;SDS011;26906;45.658;9.272;2022-08-06T15:28:22;4.55;;;1.90;;
41167;SDS011;26906;45.658;9.272;2022-08-06T15:30:48;2.45;;;1.67;;
41167;SDS011;26906;45.658;9.272;2022-08-06T15:33:14;4.68;;;1.60;;
41167;SDS011;26906;45.658;9.272;2022-08-06T15:35:40;3.17;;;1.98;;
41167;SDS011;26906;45.658;9.272;2022-08-06T15:38:06;2.40;;;1.70;;
41167;SDS011;26906;45.658;9.272;2022-08-06T15:40:31;4.45;;;1.70;;
41167;SDS011;26906;45.658;9.272;2022-08-06T15:42:57;2.13;;;1.48;;
41167;SDS011;26906;45.658;9.272;2022-08-06T15:45:23;6.32;;;1.60;;
41167;SDS011;26906;45.658;9.272;2022-08-06T15:47:50;4.07;;;1.63;;
41167;SDS011;26906;45.658;9.272;2022-08-06T15:50:18;4.13;;;1.80;;
41167;SDS011;26906;45.658;9.272;2022-08-06T15:52:43;4.07;;;1.40;;
41167;SDS011;26906;45.658;9.272;2022-08-06T15:55:09;7.25;;;1.80;;
41167;SDS011;26906;45.658;9.272;2022-08-06T15:57:35;3.10;;;1.65;;
41167;SDS011;26906;45.658;9.272;2022-08-06T16:00:01;3.28;;;1.60;;
41167;SDS011;26906;45.658;9.272;2022-08-06T16:02:30;6.57;;;1.83;;
41167;SDS011;26906;45.658;9.272;2022-08-06T16:04:55;2.00;;;1.50;;
41167;SDS011;26906;45.658;9.272;2022-08-06T16:07:22;2.83;;;1.52;;
41167;SDS011;26906;45.658;9.272;2022-08-06T16:09:48;4.25;;;1.83;;
41167;SDS011;26906;45.658;9.272;2022-08-06T16:12:14;4.05;;;1.50;;
41167;SDS011;26906;45.658;9.272;2022-08-06T16:14:41;5.97;;;1.70;;
41167;SDS011;26906;45.658;9.272;2022-08-06T16:17:07;2.90;;;1.20;;
41167;SDS011;26906;45.658;9.272;2022-08-06T16:19:33;3.28;;;1.20;;
41167;SDS011;26906;45.658;9.272;2022-08-06T16:21:59;2.08;;;1.27;;
41167;SDS011;26906;45.658;9.272;2022-08-06T16:24:25;2.92;;;1.42;;
41167;SDS011;26906;45.658;9.272;2022-08-06T16:26:51;2.45;;;1.23;;
41167;SDS011;26906;45.658;9.272;2022-08-06T16:29:16;2.08;;;1.35;;
41167;SDS011;26906;45.658;9.272;2022-08-06T16:31:42;2.13;;;1.17;;
41167;SDS011;26906;45.658;9.272;2022-08-06T16:34:08;2.60;;;1.70;;
41167;SDS011;26906;45.658;9.272;2022-08-06T16:36:34;2.15;;;1.60;;
41167;SDS011;26906;45.658;9.272;2022-08-06T16:39:01;2.08;;;1.40;;
41167;SDS011;26906;45.658;9.272;2022-08-06T16:41:27;3.88;;;1.60;;
41167;SDS011;26906;45.658;9.272;2022-08-06T16:43:53;2.40;;;1.65;;
41167;SDS011;26906;45.658;9.272;2022-08-06T16:46:18;2.40;;;1.60;;
41167;SDS011;26906;45.658;9.272;2022-08-06T16:48:44;3.83;;;1.70;;
41167;SDS011;26906;45.658;9.272;2022-08-06T16:51:10;2.75;;;1.98;;
41167;SDS011;26906;45.658;9.272;2022-08-06T16:53:43;1.50;;;1.38;;
41167;SDS011;26906;45.658;9.272;2022-08-06T16:56:26;1.63;;;1.50;;
41167;SDS011;26906;45.658;9.272;2022-08-06T16:58:52;1.60;;;1.45;;
41167;SDS011;26906;45.658;9.272;2022-08-06T17:01:18;2.47;;;1.70;;
41167;SDS011;26906;45.658;9.272;2022-08-06T17:03:44;2.63;;;1.48;;
41167;SDS011;26906;45.658;9.272;2022-08-06T17:06:09;5.05;;;1.65;;
41167;SDS011;26906;45.658;9.272;2022-08-06T17:08:35;2.78;;;1.58;;
41167;SDS011;26906;45.658;9.272;2022-08-06T17:11:01;2.58;;;1.75;;
41167;SDS011;26906;45.658;9.272;2022-08-06T17:13:27;3.78;;;1.75;;
41167;SDS011;26906;45.658;9.272;2022-08-06T17:15:56;2.35;;;1.60;;
41167;SDS011;26906;45.658;9.272;2022-08-06T17:18:23;2.17;;;1.70;;
41167;SDS011;26906;45.658;9.272;2022-08-06T17:20:50;2.20;;;1.70;;
41167;SDS011;26906;45.658;9.272;2022-08-06T17:23:17;4.07;;;1.90;;
41167;SDS011;26906;45.658;9.272;2022-08-06T17:25:43;3.00;;;1.77;;
41167;SDS011;26906;45.658;9.272;2022-08-06T17:28:10;3.92;;;1.70;;
41167;SDS011;26906;45.658;9.272;2022-08-06T17:30:37;1.77;;;1.58;;
41167;SDS011;26906;45.658;9.272;2022-08-06T17:33:04;6.95;;;1.80;;
41167;SDS011;26906;45.658;9.272;2022-08-06T17:35:30;3.03;;;1.95;;
41167;SDS011;26906;45.658;9.272;2022-08-06T17:37:57;2.80;;;2.10;;
41167;SDS011;26906;45.658;9.272;2022-08-06T17:40:25;3.00;;;1.80;;
41167;SDS011;26906;45.658;9.272;2022-08-06T17:42:52;3.00;;;2.03;;
41167;SDS011;26906;45.658;9.272;2022-08-06T17:45:18;2.20;;;2.00;;
41167;SDS011;26906;45.658;9.272;2022-08-06T17:47:44;2.20;;;1.98;;
41167;SDS011;26906;45.658;9.272;2022-08-06T17:50:11;3.55;;;2.20;;
41167;SDS011;26906;45.658;9.272;2022-08-06T17:52:38;3.35;;;2.22;;
41167;SDS011;26906;45.658;9.272;2022-08-06T17:55:04;5.45;;;2.50;;
41167;SDS011;26906;45.658;9.272;2022-08-06T17:57:30;3.53;;;2.35;;
41167;SDS011;26906;45.658;9.272;2022-08-06T17:59:56;3.22;;;2.38;;
41167;SDS011;26906;45.658;9.272;2022-08-06T18:02:22;3.22;;;2.60;;
41167;SDS011;26906;45.658;9.272;2022-08-06T18:04:49;3.38;;;2.22;;
41167;SDS011;26906;45.658;9.272;2022-08-06T18:07:15;4.10;;;2.40;;
41167;SDS011;26906;45.658;9.272;2022-08-06T18:09:43;5.00;;;2.70;;
41167;SDS011;26906;45.658;9.272;2022-08-06T18:12:30;4.75;;;2.60;;
41167;SDS011;26906;45.658;9.272;2022-08-06T18:14:56;5.95;;;2.80;;
41167;SDS011;26906;45.658;9.272;2022-08-06T18:17:22;5.00;;;2.60;;
41167;SDS011;26906;45.658;9.272;2022-08-06T18:19:48;5.53;;;2.50;;
41167;SDS011;26906;45.658;9.272;2022-08-06T18:22:13;4.15;;;2.28;;
41167;SDS011;26906;45.658;9.272;2022-08-06T18:24:39;7.10;;;2.63;;
41167;SDS011;26906;45.658;9.272;2022-08-06T18:27:06;2.50;;;2.30;;
41167;SDS011;26906;45.658;9.272;2022-08-06T18:29:33;3.97;;;2.53;;
41167;SDS011;26906;45.658;9.272;2022-08-06T18:32:01;2.97;;;2.47;;
41167;SDS011;26906;45.658;9.272;2022-08-06T18:34:27;3.05;;;2.25;;
41167;SDS011;26906;45.658;9.272;2022-08-06T18:36:52;7.05;;;2.72;;
41167;SDS011;26906;45.658;9.272;2022-08-06T18:39:18;4.63;;;2.30;;
41167;SDS011;26906;45.658;9.272;2022-08-06T18:41:45;3.65;;;2.50;;
41167;SDS011;26906;45.658;9.272;2022-08-06T18:44:11;4.63;;;2.50;;
41167;SDS011;26906;45.658;9.272;2022-08-06T18:46:38;3.58;;;2.20;;
41167;SDS011;26906;45.658;9.272;2022-08-06T18:49:04;9.73;;;2.40;;
41167;SDS011;26906;45.658;9.272;2022-08-06T18:51:29;3.85;;;2.42;;
41167;SDS011;26906;45.658;9.272;2022-08-06T18:53:55;4.38;;;2.20;;
41167;SDS011;26906;45.658;9.272;2022-08-06T18:56:21;2.55;;;1.80;;
41167;SDS011;26906;45.658;9.272;2022-08-06T18:58:47;3.42;;;2.45;;
41167;SDS011;26906;45.658;9.272;2022-08-06T19:01:14;3.92;;;2.20;;
41167;SDS011;26906;45.658;9.272;2022-08-06T19:03:40;4.88;;;2.28;;
41167;SDS011;26906;45.658;9.272;2022-08-06T19:06:05;2.67;;;2.20;;
41167;SDS011;26906;45.658;9.272;2022-08-06T19:08:31;5.60;;;2.42;;
41167;SDS011;26906;45.658;9.272;2022-08-06T19:10:57;4.55;;;2.03;;
41167;SDS011;26906;45.658;9.272;2022-08-06T19:13:25;4.70;;;2.13;;
41167;SDS011;26906;45.658;9.272;2022-08-06T19:15:51;4.85;;;2.28;;
41167;SDS011;26906;45.658;9.272;2022-08-06T19:18:17;2.97;;;2.50;;
41167;SDS011;26906;45.658;9.272;2022-08-06T19:20:44;3.15;;;2.33;;
41167;SDS011;26906;45.658;9.272;2022-08-06T19:23:10;4.78;;;2.60;;
41167;SDS011;26906;45.658;9.272;2022-08-06T19:25:36;3.83;;;2.10;;
41167;SDS011;26906;45.658;9.272;2022-08-06T19:28:02;2.95;;;1.98;;
41167;SDS011;26906;45.658;9.272;2022-08-06T19:30:28;3.22;;;1.92;;
41167;SDS011;26906;45.658;9.272;2022-08-06T19:32:54;2.20;;;1.80;;
41167;SDS011;26906;45.658;9.272;2022-08-06T19:35:21;3.05;;;2.03;;
41167;SDS011;26906;45.658;9.272;2022-08-06T19:37:46;2.22;;;2.03;;
41167;SDS011;26906;45.658;9.272;2022-08-06T19:40:13;3.50;;;2.00;;
41167;SDS011;26906;45.658;9.272;2022-08-06T19:42:57;3.47;;;2.05;;
41167;SDS011;26906;45.658;9.272;2022-08-06T19:45:22;2.53;;;1.80;;
41167;SDS011;26906;45.658;9.272;2022-08-06T19:47:48;5.38;;;2.05;;
41167;SDS011;26906;45.658;9.272;2022-08-06T19:50:15;4.00;;;2.30;;
41167;SDS011;26906;45.658;9.272;2022-08-06T19:52:42;3.60;;;2.00;;
41167;SDS011;26906;45.658;9.272;2022-08-06T19:55:11;4.45;;;2.20;;
41167;SDS011;26906;45.658;9.272;2022-08-06T19:57:37;4.63;;;2.55;;
41167;SDS011;26906;45.658;9.272;2022-08-06T20:00:03;4.05;;;2.10;;
41167;SDS011;26906;45.658;9.272;2022-08-06T20:02:38;4.50;;;2.22;;
41167;SDS011;26906;45.658;9.272;2022-08-06T20:05:06;2.72;;;2.00;;
41167;SDS011;26906;45.658;9.272;2022-08-06T20:07:38;3.78;;;2.08;;
41167;SDS011;26906;45.658;9.272;2022-08-06T20:10:04;4.55;;;2.30;;
41167;SDS011;26906;45.658;9.272;2022-08-06T20:12:32;3.45;;;2.33;;
41167;SDS011;26906;45.658;9.272;2022-08-06T20:15:00;3.67;;;2.67;;
41167;SDS011;26906;45.658;9.272;2022-08-06T20:17:30;3.60;;;2.40;;
41167;SDS011;26906;45.658;9.272;2022-08-06T20:19:56;4.50;;;2.50;;
41167;SDS011;26906;45.658;9.272;2022-08-06T20:22:21;3.38;;;2.50;;
41167;SDS011;26906;45.658;9.272;2022-08-06T20:24:47;4.38;;;2.40;;
41167;SDS011;26906;45.658;9.272;2022-08-06T20:27:13;5.20;;;2.35;;
41167;SDS011;26906;45.658;9.272;2022-08-06T20:29:39;3.92;;;2.28;;
41167;SDS011;26906;45.658;9.272;2022-08-06T20:32:04;3.15;;;2.20;;
41167;SDS011;26906;45.658;9.272;2022-08-06T20:34:30;4.63;;;2.50;;
41167;SDS011;26906;45.658;9.272;2022-08-06T20:36:59;4.10;;;2.10;;
41167;SDS011;26906;45.658;9.272;2022-08-06T20:39:27;2.40;;;2.20;;
41167;SDS011;26906;45.658;9.272;2022-08-06T20:41:53;4.07;;;2.17;;
41167;SDS011;26906;45.658;9.272;2022-08-06T20:44:20;2.13;;;1.92;;